ADDS METAR Data INFO
IDs: Format: Raw Decoded Include TAF

Data at: 2258 UTC 21 Feb 2018

KAGS 212253Z 16006KT 10SM CLR 27/17 A3035 RMK AO2 SLP274 T02670172
KAGS 212153Z 17008KT 10SM FEW049 28/17 A3033 RMK AO2 SLP269 T02830167
KAGS 212053Z AUTO 16009KT 10SM FEW049 30/17 A3034 RMK AO2 SLP271 T03000167 56019
KAGS 211953Z 22005KT 10SM BKN070 BKN080 28/17 A3036 RMK AO2 SLP277 T02830172
KAGS 211853Z 20008KT 10SM BKN040 BKN047 28/18 A3037 RMK AO2 SLP283 T02830183
KAGS 211753Z 20009KT 10SM BKN028 27/18 A3040 RMK AO2 SLP291 T02720183 10283 20200 58012
KAGS 211653Z 21008G17KT 10SM BKN026 26/19 A3042 RMK AO2 SLP298 T02560189
KAGS 211553Z 21006KT 10SM SCT023 BKN034 OVC042 26/19 A3043 RMK AO2 SLP302 T02560194
KAGS 211453Z VRB04KT 10SM BKN018 OVC023 23/20 A3043 RMK AO2 SLP303 T02330200 51005
KAGS 211353Z 16005KT 10SM BKN008 BKN017 21/19 A3043 RMK AO2 SLP302 T02110194
KAGS 211253Z 14005KT 8SM BKN020 BKN024 OVC070 20/19 A3043 RMK AO2 SLP302 T02000194
KAGS 210753Z AUTO 17007KT 10SM SCT015 BKN020 OVC040 21/19 A3040 RMK AO2 SLP291 T02110194
KAGS 210653Z 15005KT 10SM BKN015 BKN019 OVC030 21/19 A3040 RMK AO2 SLP293 T02110194
KAGS 210644Z VRB05KT 10SM OVC015 22/19 A3040 RMK AO2 T02170194
KAGS 210634Z 17005KT 10SM OVC014 22/19 A3040 RMK AO2 T02170194
KAGS 210553Z 17007KT 10SM OVC015 22/19 A3040 RMK AO2 SLP292 T02170194 10239 20211 51004
KAGS 201510Z 15004KT 4SM BR OVC002 19/18 A3044 RMK AO2 T01890183
KAGS 201453Z 12005KT 2SM BR OVC003 18/18 A3044 RMK AO2 SLP307 T01830183 53015
KAGS 201426Z 00000KT 1 1/2SM BR VV002 18/18 A3044 RMK AO2 T01780178
KAGS 201353Z 00000KT 1/4SM FG VV002 18/18 A3043 RMK AO2 SLP302 T01780178 RVRNO
KAGS 201253Z 00000KT 1/4SM FG VV002 17/17 A3041 RMK AO2 SLP296 T01720172 RVRNO
KAGS 201153Z AUTO 00000KT 1/4SM FG VV002 17/17 A3040 RMK AO2 SLP293 T01720172 10172 20128 53013 RVRNO